createdAt,value
2023-05-05T00:00:00.000Z,13.29
2023-05-05T00:15:00.000Z,13.96
2023-05-05T00:30:00.000Z,14.98
2023-05-05T00:45:00.000Z,16.08
2023-05-05T01:00:00.000Z,15.06
2023-05-05T01:15:00.000Z,18.21
2023-05-05T01:30:00.000Z,17.95
2023-05-05T01:45:00.000Z,15.88
2023-05-05T02:00:00.000Z,15.41
2023-05-05T02:15:00.000Z,16.81
2023-05-05T02:30:00.000Z,17.49
2023-05-05T02:45:00.000Z,16.62
2023-05-05T03:00:00.000Z,19.02
2023-05-05T03:15:00.000Z,20.35
2023-05-05T03:30:00.000Z,17.75
2023-05-05T03:45:00.000Z,19.28
2023-05-05T04:00:00.000Z,19.35
2023-05-05T04:15:00.000Z,17.11
2023-05-05T04:30:00.000Z,10.35
2023-05-05T04:45:00.000Z,5.72
2023-05-05T05:00:00.000Z,5.28
2023-05-05T05:15:00.000Z,5.08
2023-05-05T05:30:00.000Z,4.6
2023-05-05T05:45:00.000Z,4.48
2023-05-05T06:00:00.000Z,4.41
2023-05-05T06:15:00.000Z,4.34
2023-05-05T06:30:00.000Z,4.44
2023-05-05T06:45:00.000Z,4.34
2023-05-05T07:00:00.000Z,4.25
2023-05-05T07:15:00.000Z,3.84
2023-05-05T07:30:00.000Z,4.08
2023-05-05T07:45:00.000Z,4.24
2023-05-05T08:00:00.000Z,4.21
2023-05-05T08:15:00.000Z,4.11
2023-05-05T08:30:00.000Z,4.68
2023-05-05T08:45:00.000Z,5.45
2023-05-05T09:00:00.000Z,9.44
2023-05-05T09:15:00.000Z,5.62
2023-05-05T09:30:00.000Z,7.42
2023-05-05T09:45:00.000Z,8.81
2023-05-05T10:00:00.000Z,8.38
2023-05-05T10:15:00.000Z,8.21
2023-05-05T10:30:00.000Z,6.82
2023-05-05T10:45:00.000Z,7.99
2023-05-05T11:00:00.000Z,6.94
2023-05-05T11:15:00.000Z,5.41
2023-05-05T11:30:00.000Z,6.41
2023-05-05T11:45:00.000Z,6.65
2023-05-05T12:00:00.000Z,5.76
2023-05-05T12:15:00.000Z,4.91
2023-05-05T12:30:00.000Z,5.58
2023-05-05T12:45:00.000Z,5.6
2023-05-05T13:00:00.000Z,6.87
2023-05-05T13:15:00.000Z,6.75
2023-05-05T13:30:00.000Z,7.05
2023-05-05T13:45:00.000Z,6.67
2023-05-05T14:00:00.000Z,6.11
2023-05-05T14:15:00.000Z,7.04
2023-05-05T14:30:00.000Z,7.56
2023-05-05T14:45:00.000Z,7.2
2023-05-05T15:00:00.000Z,7.02
2023-05-05T15:15:00.000Z,6.99
2023-05-05T15:30:00.000Z,7.02
2023-05-05T15:45:00.000Z,7.2
2023-05-05T16:00:00.000Z,8.25
2023-05-05T16:15:00.000Z,9.13
2023-05-05T16:30:00.000Z,9.52
2023-05-05T16:45:00.000Z,9.26
2023-05-05T17:00:00.000Z,9.27
2023-05-05T17:15:00.000Z,10.08
2023-05-05T17:30:00.000Z,12.46
2023-05-05T17:45:00.000Z,13.27
2023-05-05T18:00:00.000Z,14.79
2023-05-05T18:15:00.000Z,15.52
2023-05-05T18:30:00.000Z,16.27
2023-05-05T18:45:00.000Z,15.99
2023-05-05T19:00:00.000Z,18.53
2023-05-05T19:15:00.000Z,20.46
2023-05-05T19:30:00.000Z,18.36
2023-05-05T19:45:00.000Z,18.31
2023-05-05T20:00:00.000Z,19.52
2023-05-05T20:15:00.000Z,18.22
2023-05-05T20:30:00.000Z,22.69
2023-05-05T20:45:00.000Z,5.56
2023-05-05T21:00:00.000Z,4.04
2023-05-05T21:15:00.000Z,4.24
2023-05-05T21:30:00.000Z,4.52
2023-05-05T21:45:00.000Z,6.08
2023-05-05T22:00:00.000Z,11.19
2023-05-05T22:15:00.000Z,4.42
2023-05-05T22:30:00.000Z,4.32
2023-05-05T22:45:00.000Z,4.32
2023-05-05T23:00:00.000Z,4.16
2023-05-05T23:15:00.000Z,3.27
2023-05-05T23:30:00.000Z,2.38
2023-05-05T23:45:00.000Z,2.26
